LHDC Airport Information

Runway Information
Runway 05L Length 8087 ft width 230 ft
Elevation 0 ft Threshold 0 ft Heading 48
Runway 23R Length 8087 ft Width 230 ft
Elevation 0 ft Threshold 0 ft Heading 228
Runway 05R Length 8196 ft width 131 ft
Elevation 355 ft Threshold 0 ft Heading 48
Runway 23L Length 8196 ft Width 131 ft
Elevation 359 ft Threshold 979 ft Heading 228
Airport Frequencies
Type AFIS Name INFO Frequency 125.9 MHZ
Type INFO Name BUDAPEST I Frequency 133.3 MHZ
Airport Navaids
Type NDB Name Debrecen Frequency 326 KHZ
Type NDB Name Debrecen Frequency 295 KHZ
Airport Weather Information & NOTAM
ADDS - METARS form results

(1233 UTC 17 November 2019)
Data provider http://aviationweather.gov/metar/data/
 
METAR text: LHDC 171215Z AUTO 05004KT 020V100 9000 NCD 17/10 Q1016 NOSIG
Conditions at: LHDC (DEBRECEN AIRPORT, HU) observed 1215 UTC 17 November 2019
Temperature: 17.0°C (63°F)
Dewpoint: 10.0°C (50°F) [RH = 63%]
Pressure (altimeter): 30.00 inches Hg (1016.0 mb)
Winds: from the NE (50 degrees) at 5 MPH (4 knots; 2.1 m/s)
Visibility: 6 miles ( 9 km)
Ceiling: at least 12,000 feet AGL
Clouds: sky clear below 12,000 feet AGL
Weather: no significant weather observed at this time

METAR text: LHDC 171145Z AUTO 05005KT 9000 NCD 17/10 Q1016 NOSIG
Conditions at: LHDC (DEBRECEN AIRPORT, HU) observed 1145 UTC 17 November 2019
Temperature: 17.0°C (63°F)
Dewpoint: 10.0°C (50°F) [RH = 63%]
Pressure (altimeter): 30.00 inches Hg (1016.0 mb)
Winds: from the NE (50 degrees) at 6 MPH (5 knots; 2.6 m/s)
Visibility: 6 miles ( 9 km)
Ceiling: at least 12,000 feet AGL
Clouds: sky clear below 12,000 feet AGL
Weather: no significant weather observed at this time

Forecast for: LHDC (DEBRECEN AIRPORT, HU)
Text: TAF LHDC 171115Z 1712/1721 VRB03KT CAVOK
Forecast period: 1200 to 1500 UTC 17 November 2019
Forecast type: FROM: standard forecast or significant change
Winds: variable direction winds at 3 MPH (3 knots; 1.5 m/s)
Visibility: 6 or more miles 10+ km)
Ceiling: unknown
Clouds: missing
Weather: NSW  (no significant weather)
Text: BECMG 1715/1718 6000 NSC
Forecast period: 1500 to 2100 UTC 17 November 2019
Forecast type: BECOMING: Conditions expected to become as follows by 1800 UTC 17 November 2019
Winds: variable direction winds at 3 MPH (3 knots; 1.5 m/s)
Visibility: 4 miles (6 km)
Ceiling: unknown
Clouds: missing
Weather: NSW  (no significant weather)